sensor_id;sensor_type;location;lat;lon;timestamp;pressure;altitude;pressure_sealevel;temperature
71163;BMP280;58858;50.948;6.566;2022-08-05T00:05:04;100443.78;;;17.91
71163;BMP280;58858;50.948;6.566;2022-08-05T00:15:05;100451.75;;;17.85
71163;BMP280;58858;50.948;6.566;2022-08-05T00:25:08;100451.97;;;17.33
71163;BMP280;58858;50.948;6.566;2022-08-05T00:35:10;100418.47;;;17.29
71163;BMP280;58858;50.948;6.566;2022-08-05T00:45:12;100416.81;;;17.58
71163;BMP280;58858;50.948;6.566;2022-08-05T00:55:13;100442.00;;;17.08
71163;BMP280;58858;50.948;6.566;2022-08-05T01:05:15;100456.03;;;16.78
71163;BMP280;58858;50.948;6.566;2022-08-05T01:15:20;100418.34;;;16.21
71163;BMP280;58858;50.948;6.566;2022-08-05T01:25:40;100434.09;;;16.39
71163;BMP280;58858;50.948;6.566;2022-08-05T01:35:46;100469.84;;;16.78
71163;BMP280;58858;50.948;6.566;2022-08-05T01:45:49;100511.75;;;16.84
71163;BMP280;58858;50.948;6.566;2022-08-05T01:55:51;100540.94;;;16.55
71163;BMP280;58858;50.948;6.566;2022-08-05T02:05:53;100554.13;;;16.46
71163;BMP280;58858;50.948;6.566;2022-08-05T02:16:01;100562.69;;;16.49
71163;BMP280;58858;50.948;6.566;2022-08-05T02:26:06;100616.84;;;16.52
71163;BMP280;58858;50.948;6.566;2022-08-05T02:36:10;100607.31;;;15.96
71163;BMP280;58858;50.948;6.566;2022-08-05T02:46:15;100260.72;;;15.17
71163;BMP280;58858;50.948;6.566;2022-08-05T02:56:16;100409.66;;;15.74
71163;BMP280;58858;50.948;6.566;2022-08-05T03:06:19;100489.72;;;16.13
71163;BMP280;58858;50.948;6.566;2022-08-05T03:16:21;100495.56;;;16.49
71163;BMP280;58858;50.948;6.566;2022-08-05T03:26:22;100497.91;;;16.52
71163;BMP280;58858;50.948;6.566;2022-08-05T03:36:23;100503.06;;;16.78
71163;BMP280;58858;50.948;6.566;2022-08-05T03:46:25;100481.31;;;16.84
71163;BMP280;58858;50.948;6.566;2022-08-05T03:56:35;100459.16;;;16.84
71163;BMP280;58858;50.948;6.566;2022-08-05T04:06:38;100371.28;;;16.62
71163;BMP280;58858;50.948;6.566;2022-08-05T04:16:39;100427.63;;;16.78
71163;BMP280;58858;50.948;6.566;2022-08-05T04:27:01;100442.41;;;16.39
71163;BMP280;58858;50.948;6.566;2022-08-05T04:37:02;100457.03;;;16.21
71163;BMP280;58858;50.948;6.566;2022-08-05T04:47:04;100449.13;;;16.68
71163;BMP280;58858;50.948;6.566;2022-08-05T04:57:05;100462.59;;;16.42
71163;BMP280;58858;50.948;6.566;2022-08-05T05:07:06;100457.63;;;16.92
71163;BMP280;58858;50.948;6.566;2022-08-05T05:17:09;100461.69;;;17.23
71163;BMP280;58858;50.948;6.566;2022-08-05T05:27:13;100475.72;;;17.58
71163;BMP280;58858;50.948;6.566;2022-08-05T05:37:15;100493.03;;;17.48
71163;BMP280;58858;50.948;6.566;2022-08-05T05:47:16;100487.03;;;17.40
71163;BMP280;58858;50.948;6.566;2022-08-05T05:57:17;100498.94;;;17.42
71163;BMP280;58858;50.948;6.566;2022-08-05T06:07:18;100513.16;;;17.37
71163;BMP280;58858;50.948;6.566;2022-08-05T06:17:19;100521.13;;;17.54
71163;BMP280;58858;50.948;6.566;2022-08-05T06:27:20;100539.03;;;17.10
71163;BMP280;58858;50.948;6.566;2022-08-05T06:37:21;100539.59;;;16.65
71163;BMP280;58858;50.948;6.566;2022-08-05T06:47:22;100526.94;;;16.63
71163;BMP280;58858;50.948;6.566;2022-08-05T06:57:23;100557.81;;;16.39
71163;BMP280;58858;50.948;6.566;2022-08-05T07:07:24;100564.44;;;16.25
71163;BMP280;58858;50.948;6.566;2022-08-05T07:17:25;100602.66;;;16.28
71163;BMP280;58858;50.948;6.566;2022-08-05T07:27:27;100619.91;;;15.69
71163;BMP280;58858;50.948;6.566;2022-08-05T07:37:28;100631.56;;;15.49
71163;BMP280;58858;50.948;6.566;2022-08-05T07:47:29;100651.22;;;15.34
71163;BMP280;58858;50.948;6.566;2022-08-05T07:57:50;100657.44;;;15.16
71163;BMP280;58858;50.948;6.566;2022-08-05T08:07:53;100683.31;;;15.30
71163;BMP280;58858;50.948;6.566;2022-08-05T08:17:55;100700.16;;;15.06
71163;BMP280;58858;50.948;6.566;2022-08-05T08:27:56;100722.22;;;15.15
71163;BMP280;58858;50.948;6.566;2022-08-05T08:37:59;100706.34;;;14.79
71163;BMP280;58858;50.948;6.566;2022-08-05T08:48:01;100728.75;;;15.01
71163;BMP280;58858;50.948;6.566;2022-08-05T08:58:05;100748.50;;;14.98
71163;BMP280;58858;50.948;6.566;2022-08-05T09:08:07;100762.56;;;14.93
71163;BMP280;58858;50.948;6.566;2022-08-05T09:18:09;100767.47;;;14.85
71163;BMP280;58858;50.948;6.566;2022-08-05T09:28:24;100770.13;;;14.92
71163;BMP280;58858;50.948;6.566;2022-08-05T09:38:28;100779.66;;;15.26
71163;BMP280;58858;50.948;6.566;2022-08-05T09:48:32;100798.66;;;15.13
71163;BMP280;58858;50.948;6.566;2022-08-05T09:58:33;100802.91;;;15.42
71163;BMP280;58858;50.948;6.566;2022-08-05T10:08:36;100830.03;;;15.71
71163;BMP280;58858;50.948;6.566;2022-08-05T10:18:38;100846.34;;;15.86
71163;BMP280;58858;50.948;6.566;2022-08-05T10:28:43;100836.44;;;16.20
71163;BMP280;58858;50.948;6.566;2022-08-05T10:38:46;100849.22;;;16.52
71163;BMP280;58858;50.948;6.566;2022-08-05T10:48:49;100853.59;;;16.94
71163;BMP280;58858;50.948;6.566;2022-08-05T11:09:16;100824.00;;;17.97
71163;BMP280;58858;50.948;6.566;2022-08-05T11:19:29;100842.00;;;18.39
71163;BMP280;58858;50.948;6.566;2022-08-05T11:29:36;100821.34;;;19.07
71163;BMP280;58858;50.948;6.566;2022-08-05T11:39:48;100844.19;;;19.28
71163;BMP280;58858;50.948;6.566;2022-08-05T11:49:55;100777.59;;;21.13
71163;BMP280;58858;50.948;6.566;2022-08-05T11:59:57;100860.31;;;21.49
71163;BMP280;58858;50.948;6.566;2022-08-05T12:09:58;100867.28;;;20.97
71163;BMP280;58858;50.948;6.566;2022-08-05T12:20:05;100930.84;;;21.00
71163;BMP280;58858;50.948;6.566;2022-08-05T12:30:08;100967.94;;;20.78
71163;BMP280;58858;50.948;6.566;2022-08-05T12:40:10;100830.38;;;21.49
71163;BMP280;58858;50.948;6.566;2022-08-05T12:50:13;100867.03;;;22.53
71163;BMP280;58858;50.948;6.566;2022-08-05T13:00:22;100887.31;;;23.12
71163;BMP280;58858;50.948;6.566;2022-08-05T13:10:24;101041.63;;;21.75
71163;BMP280;58858;50.948;6.566;2022-08-05T13:20:33;101097.31;;;22.10
71163;BMP280;58858;50.948;6.566;2022-08-05T13:30:34;100965.06;;;21.65
71163;BMP280;58858;50.948;6.566;2022-08-05T13:40:35;101038.81;;;20.06
71163;BMP280;58858;50.948;6.566;2022-08-05T13:50:36;101183.66;;;19.25
71163;BMP280;58858;50.948;6.566;2022-08-05T14:00:37;101179.28;;;19.22
71163;BMP280;58858;50.948;6.566;2022-08-05T14:10:38;100883.16;;;19.97
71163;BMP280;58858;50.948;6.566;2022-08-05T14:20:39;100848.72;;;20.15
71163;BMP280;58858;50.948;6.566;2022-08-05T14:30:40;101018.59;;;20.17
71163;BMP280;58858;50.948;6.566;2022-08-05T14:40:41;101026.19;;;19.83
71163;BMP280;58858;50.948;6.566;2022-08-05T14:50:43;101093.97;;;19.33
71163;BMP280;58858;50.948;6.566;2022-08-05T15:00:44;101140.22;;;19.72
71163;BMP280;58858;50.948;6.566;2022-08-05T15:10:47;101035.66;;;20.01
71163;BMP280;58858;50.948;6.566;2022-08-05T15:20:48;101047.28;;;20.55
71163;BMP280;58858;50.948;6.566;2022-08-05T15:30:50;101046.16;;;20.82
71163;BMP280;58858;50.948;6.566;2022-08-05T15:40:51;101096.81;;;19.78
71163;BMP280;58858;50.948;6.566;2022-08-05T15:50:52;101034.06;;;19.75
71163;BMP280;58858;50.948;6.566;2022-08-05T16:00:53;100958.41;;;19.65
71163;BMP280;58858;50.948;6.566;2022-08-05T16:10:54;100982.44;;;19.61
71163;BMP280;58858;50.948;6.566;2022-08-05T16:20:55;101018.25;;;19.66
71163;BMP280;58858;50.948;6.566;2022-08-05T16:30:57;100961.53;;;19.49
71163;BMP280;58858;50.948;6.566;2022-08-05T16:40:59;101002.72;;;19.41
71163;BMP280;58858;50.948;6.566;2022-08-05T16:51:02;100981.41;;;19.12
71163;BMP280;58858;50.948;6.566;2022-08-05T17:01:03;100968.69;;;19.09
71163;BMP280;58858;50.948;6.566;2022-08-05T17:11:04;100955.44;;;19.19
71163;BMP280;58858;50.948;6.566;2022-08-05T17:21:05;100939.59;;;19.10
71163;BMP280;58858;50.948;6.566;2022-08-05T17:31:06;100881.72;;;18.84
71163;BMP280;58858;50.948;6.566;2022-08-05T17:41:08;100959.84;;;18.90
71163;BMP280;58858;50.948;6.566;2022-08-05T17:51:09;100929.47;;;18.60
71163;BMP280;58858;50.948;6.566;2022-08-05T18:01:10;101015.06;;;18.34
71163;BMP280;58858;50.948;6.566;2022-08-05T18:11:15;101110.50;;;17.90
71163;BMP280;58858;50.948;6.566;2022-08-05T18:21:17;101189.91;;;17.76
71163;BMP280;58858;50.948;6.566;2022-08-05T18:31:18;101211.22;;;17.65
71163;BMP280;58858;50.948;6.566;2022-08-05T18:41:20;101226.41;;;17.27
71163;BMP280;58858;50.948;6.566;2022-08-05T18:51:22;101291.72;;;16.85
71163;BMP280;58858;50.948;6.566;2022-08-05T19:01:42;101332.69;;;16.61
71163;BMP280;58858;50.948;6.566;2022-08-05T19:11:43;101360.13;;;16.24
71163;BMP280;58858;50.948;6.566;2022-08-05T19:21:44;101320.16;;;15.92
71163;BMP280;58858;50.948;6.566;2022-08-05T19:31:45;101352.69;;;15.68
71163;BMP280;58858;50.948;6.566;2022-08-05T19:41:46;101380.03;;;15.56
71163;BMP280;58858;50.948;6.566;2022-08-05T19:51:47;101418.72;;;15.33
71163;BMP280;58858;50.948;6.566;2022-08-05T20:01:48;101446.31;;;14.77
71163;BMP280;58858;50.948;6.566;2022-08-05T20:11:49;101472.63;;;14.78
71163;BMP280;58858;50.948;6.566;2022-08-05T20:21:50;101503.75;;;14.57
71163;BMP280;58858;50.948;6.566;2022-08-05T20:32:11;101509.00;;;14.24
71163;BMP280;58858;50.948;6.566;2022-08-05T20:42:14;101502.22;;;14.18
71163;BMP280;58858;50.948;6.566;2022-08-05T20:52:15;101520.63;;;14.08
71163;BMP280;58858;50.948;6.566;2022-08-05T21:02:16;101535.66;;;13.78
71163;BMP280;58858;50.948;6.566;2022-08-05T21:12:17;101554.75;;;13.68
71163;BMP280;58858;50.948;6.566;2022-08-05T21:22:19;101562.56;;;13.21
71163;BMP280;58858;50.948;6.566;2022-08-05T21:32:22;101577.94;;;12.74
71163;BMP280;58858;50.948;6.566;2022-08-05T21:42:23;101566.59;;;12.85
71163;BMP280;58858;50.948;6.566;2022-08-05T21:52:24;101562.34;;;12.77
71163;BMP280;58858;50.948;6.566;2022-08-05T22:02:25;101546.41;;;12.83
71163;BMP280;58858;50.948;6.566;2022-08-05T22:12:26;101568.09;;;12.86
71163;BMP280;58858;50.948;6.566;2022-08-05T22:22:27;101560.94;;;12.56
71163;BMP280;58858;50.948;6.566;2022-08-05T22:32:28;101543.97;;;12.37
71163;BMP280;58858;50.948;6.566;2022-08-05T22:42:29;101576.94;;;12.10
71163;BMP280;58858;50.948;6.566;2022-08-05T22:52:30;101591.81;;;11.55
71163;BMP280;58858;50.948;6.566;2022-08-05T23:02:31;101594.56;;;11.22
71163;BMP280;58858;50.948;6.566;2022-08-05T23:12:32;101603.91;;;10.94
71163;BMP280;58858;50.948;6.566;2022-08-05T23:22:34;101615.59;;;10.69
71163;BMP280;58858;50.948;6.566;2022-08-05T23:32:35;101600.41;;;10.81
71163;BMP280;58858;50.948;6.566;2022-08-05T23:42:36;101578.69;;;10.95
71163;BMP280;58858;50.948;6.566;2022-08-05T23:52:38;101590.72;;;10.54
